Wednesday, November 21, 2018, 4:58 AM EST
Back to Local

KWWD, Wildwood, Cape May County Airport

Location: Villas, NJ, United States Lat: 39.017
Local Time: 4:58 AM EST ( 9:58 GMT) Lon: -74.917
Time Zone: US/Eastern Elev: 22 ft

Show me the last for .
Show Decoded

2018-11-21 03:55 METAR KWWD 210855Z AUTO 30006KT 10SM CLR 05/M04 A3013 RMK AO2 SLP206 T00501039
                 50001 =
2018-11-21 02:55 METAR KWWD 210755Z AUTO 31008KT 10SM CLR 05/M03 A3013 RMK AO2 SLP207 T00501028 =
2018-11-21 01:55 METAR KWWD 210655Z AUTO 30010G16KT 270V330 10SM FEW037 05/M02 A3014 RMK AO2
                 SLP209 T00501022 =
2018-11-21 00:55 METAR KWWD 210555Z AUTO 30008KT 10SM BKN038 06/M01 A3013 RMK AO2 SLP205
                 T00561011 10083 20056 50005 =
2018-11-20 23:55 METAR KWWD 210455Z AUTO 29008KT 10SM FEW039 06/M01 A3013 RMK AO2 SLP206
                 T00561011 401110056 =
2018-11-20 22:55 METAR KWWD 210355Z AUTO 30010G17KT 10SM SCT043 06/M02 A3013 RMK AO2 SLP206
                 T00611022 =
2018-11-20 21:55 METAR KWWD 210255Z AUTO 31011G16KT 10SM BKN043 07/M01 A3012 RMK AO2 SLP200
                 T00671006 51015 =
2018-11-20 20:55 METAR KWWD 210155Z AUTO 30010G16KT 10SM BKN045 07/M01 A3010 RMK AO2 SLP197
                 T00671011 =
2018-11-20 18:55 METAR KWWD 202355Z AUTO 30014G20KT 10SM FEW043 OVC050 08/M01 A3007 RMK AO2
                 SLP186 T00831006 10100 20083 51033 =
2018-11-20 17:55 METAR KWWD 202255Z AUTO 30011G16KT 10SM CLR 08/00 A3004 RMK AO2 SLP175 T00830000
                 =
2018-11-20 15:55 METAR KWWD 202055Z AUTO 32010G18KT 10SM FEW040 09/02 A2997 RMK AO2 SLP153
                 T00940017 53014 =
2018-11-20 14:55 METAR KWWD 201955Z AUTO 32009G14KT 10SM BKN042 10/03 A2994 RMK AO2 SLP141
                 T01000033 =
2018-11-20 13:55 METAR KWWD 201855Z AUTO 31007G14KT 270V340 10SM CLR 10/04 A2993 RMK AO2 SLP137
                 T01000044 =
2018-11-20 12:55 METAR KWWD 201755Z AUTO 30012G17KT 10SM OVC085 09/04 A2993 RMK AO2 SLP139
                 T00940044 10111 20089 53001 =
2018-11-20 12:12 METAR KWWD 201712Z AUTO 29011KT 7SM SCT014 OVC075 09/06 A2993 RMK AO2 =
2018-11-20 11:55 METAR KWWD 201655Z AUTO 29011KT 5SM HZ BKN012 OVC075 09/06 A2993 RMK AO2 SLP136
                 T00890061 TSNO =
2018-11-20 11:52 METAR KWWD 201652Z AUTO 30010KT 5SM HZ SCT012 OVC075 09/06 A2993 RMK AO2 =
2018-11-20 11:16 METAR KWWD 201616Z AUTO 30008KT 4SM HZ BKN010 OVC060 09/07 A2993 RMK AO2 =
2018-11-20 10:55 METAR KWWD 201555Z AUTO 30008KT 4SM BR OVC055 09/07 A2993 RMK AO2 SLP138
                 T00940072 =
2018-11-20 10:37 METAR KWWD 201537Z AUTO 32008KT 4SM HZ SCT010 BKN055 OVC080 11/07 A2993 RMK AO2
                 =
2018-11-20 10:30 METAR KWWD 201530Z AUTO 32008KT 4SM HZ BKN010 OVC055 11/07 A2993 RMK AO2 =
2018-11-20 09:55 METAR KWWD 201455Z AUTO 32008G16KT 280V360 5SM HZ BKN008 OVC060 11/08 A2992 RMK
                 AO2 SLP136 T01110083 51013 =
2018-11-20 09:32 METAR KWWD 201432Z AUTO 29007KT 5SM BR SCT008 OVC055 11/09 A2991 RMK AO2 =
2018-11-20 08:55 METAR KWWD 201355Z AUTO 30007KT 7SM OVC055 11/09 A2991 RMK AO2 SLP131 T01060089
                 =
2018-11-20 07:55 METAR KWWD 201255Z AUTO 29007KT 7SM BKN055 BKN075 OVC090 11/09 A2990 RMK AO2
                 SLP128 T01060094 =
2018-11-20 06:55 METAR KWWD 201155Z AUTO 25007KT 4SM BR SCT080 BKN100 10/09 A2989 RMK AO2 SLP123
                 T01000094 10100 20067 53004 =
2018-11-20 06:23 METAR KWWD 201123Z AUTO 27006KT 5SM BR SCT004 BKN070 OVC085 10/09 A2988 RMK AO2
                 =
2018-11-20 06:16 METAR KWWD 201116Z AUTO 26006KT 5SM BR BKN004 BKN070 OVC080 10/09 A2988 RMK AO2
                 =
2018-11-20 05:55 METAR KWWD 201055Z AUTO 25007KT 5SM BR SCT006 BKN070 OVC090 10/09 A2987 RMK AO2
                 SLP119 T01000094 =
2018-11-20 05:18 METAR KWWD 201018Z AUTO 27005KT 4SM BR SCT006 BKN065 OVC085 10/09 A2988 RMK AO2
                 =

Support USWX by starting your Amazon purchase here.